Time;durP1;ratioP1;P1;durP2;ratioP2;P2;SDS_P1;SDS_P2;PMS_P1;PMS_P2;Temp;Humidity;BMP_temperature;BMP_pressure;BME280_temperature;BME280_humidity;BME280_pressure;Samples;Min_cycle;Max_cycle;Signal;HPM_P1;HPM_P2
2022/05/20 00:01:08;;;;;;;;;19.00;19.00;21.40;31.70;;;;;;4956589;28;8788;-74
2022/05/20 00:03:38;;;;;;;;;21.00;21.00;21.30;31.90;;;;;;4956339;28;8862;-75
2022/05/20 00:06:04;;;;;;;;;20.00;20.00;21.30;32.50;;;;;;4956289;28;8780;-73
2022/05/20 00:08:31;;;;;;;;;19.67;19.67;21.20;32.80;;;;;;4970166;28;8788;-73
2022/05/20 00:10:57;;;;;;;;;20.67;20.67;21.20;33.30;;;;;;4965211;28;8806;-72
2022/05/20 00:13:28;;;;;;;;;19.67;19.67;21.10;33.00;;;;;;4975568;28;8891;-75
2022/05/20 00:15:54;;;;;;;;;19.00;19.00;21.10;33.20;;;;;;4975441;28;8790;-75
2022/05/20 00:18:20;;;;;;;;;19.33;19.33;21.00;33.10;;;;;;4975446;28;8786;-74
2022/05/20 00:20:46;;;;;;;;;16.67;16.67;21.00;33.20;;;;;;4969301;28;8867;-74
2022/05/20 00:23:12;;;;;;;;;16.33;16.33;21.00;33.20;;;;;;4966277;28;9452;-74
2022/05/20 00:25:47;;;;;;;;;16.00;16.00;20.90;33.10;;;;;;4966778;28;8789;-73
2022/05/20 00:28:25;;;;;;;;;14.00;14.00;20.90;33.10;;;;;;4975722;28;9438;-73
2022/05/20 00:30:57;;;;;;;;;16.00;16.00;20.80;33.10;;;;;;4975421;28;8765;-76
2022/05/20 00:33:24;;;;;;;;;14.33;14.33;20.90;33.10;;;;;;4990370;28;9023;-74
2022/05/20 00:35:50;;;;;;;;;13.00;13.00;20.80;33.10;;;;;;4974211;28;9514;-73
2022/05/20 00:38:16;;;;;;;;;20.33;20.33;20.80;33.60;;;;;;4989074;28;8802;-73
2022/05/20 00:40:43;;;;;;;;;24.67;24.67;20.90;33.30;;;;;;4970234;28;8782;-73
2022/05/20 00:43:14;;;;;;;;;22.00;22.00;20.80;33.10;;;;;;4973943;28;8855;-74
2022/05/20 00:45:42;;;;;;;;;25.67;24.33;20.70;33.20;;;;;;4968796;28;8876;-74
2022/05/20 00:48:08;;;;;;;;;15.00;15.00;20.50;33.70;;;;;;4975577;28;8770;-74
2022/05/20 00:50:38;;;;;;;;;18.33;18.33;20.40;33.70;;;;;;4975585;28;9439;-74
2022/05/20 00:53:04;;;;;;;;;17.67;17.67;20.50;33.60;;;;;;4975350;28;8794;-74
2022/05/20 00:55:30;;;;;;;;;15.33;15.33;20.50;33.40;;;;;;4975125;28;8801;-73
2022/05/20 00:58:04;;;;;;;;;19.00;19.00;20.50;34.10;;;;;;4975315;28;8793;-73
2022/05/20 01:00:32;;;;;;;;;16.00;16.00;20.50;34.30;;;;;;4975215;28;8773;-74
2022/05/20 01:03:03;;;;;;;;;16.00;16.00;20.50;33.70;;;;;;4976305;28;8848;-74
2022/05/20 01:05:36;;;;;;;;;17.00;17.00;20.40;34.20;;;;;;4978877;28;8824;-74
2022/05/20 01:08:03;;;;;;;;;18.33;18.33;20.50;34.20;;;;;;4978774;28;8769;-74
2022/05/20 01:10:28;;;;;;;;;14.00;14.00;20.50;34.20;;;;;;4978920;28;9515;-74
2022/05/20 01:12:57;;;;;;;;;16.67;16.67;20.40;34.80;;;;;;4978556;28;8777;-74
2022/05/20 01:15:23;;;;;;;;;18.33;18.33;20.40;34.90;;;;;;4978954;28;8793;-74
2022/05/20 01:17:51;;;;;;;;;16.67;16.67;20.20;34.50;;;;;;4978515;28;8784;-74
2022/05/20 01:20:22;;;;;;;;;16.67;16.00;20.20;35.00;;;;;;4978498;28;8782;-74
2022/05/20 01:22:53;;;;;;;;;15.00;15.00;20.20;34.80;;;;;;4978767;28;8904;-74
2022/05/20 01:25:21;;;;;;;;;14.00;14.00;20.20;35.60;;;;;;4978459;28;8847;-73
2022/05/20 01:27:47;;;;;;;;;13.67;13.67;20.20;35.40;;;;;;4978367;28;8792;-74
2022/05/20 01:30:20;;;;;;;;;12.00;12.00;20.20;35.30;;;;;;4978288;28;8793;-74
2022/05/20 01:32:46;;;;;;;;;20.00;20.00;20.20;35.00;;;;;;4978809;28;8796;-74
2022/05/20 01:35:24;;;;;;;;;17.67;17.67;20.20;35.10;;;;;;4978053;28;8825;-74
2022/05/20 01:37:50;;;;;;;;;20.33;20.33;20.20;35.60;;;;;;4978226;28;8805;-74
2022/05/20 01:40:16;;;;;;;;;20.33;20.33;20.20;35.90;;;;;;4978128;28;8801;-74
2022/05/20 01:43:04;;;;;;;;;17.67;17.67;20.20;35.80;;;;;;4978358;28;8916;-74
2022/05/20 01:45:39;;;;;;;;;17.00;17.00;20.20;36.00;;;;;;4993432;28;8848;-74
2022/05/20 01:48:29;;;;;;;;;15.33;15.33;20.20;35.80;;;;;;4978289;28;8794;-74
2022/05/20 01:50:55;;;;;;;;;16.67;16.67;20.00;35.70;;;;;;4978055;28;8761;-74
2022/05/20 01:53:38;;;;;;;;;15.33;15.33;19.90;36.10;;;;;;4976868;28;8836;-73
2022/05/20 01:56:14;;;;;;;;;19.00;19.00;19.70;36.40;;;;;;4977897;28;8781;-74
2022/05/20 01:58:58;;;;;;;;;21.00;21.00;19.70;36.60;;;;;;4977866;28;8746;-74
2022/05/20 02:02:02;;;;;;;;;19.33;19.33;19.80;36.70;;;;;;4977796;28;8782;-74
2022/05/20 02:04:39;;;;;;;;;29.00;29.00;19.90;36.20;;;;;;4976634;28;9439;-73
2022/05/20 02:07:10;;;;;;;;;27.67;27.67;19.90;35.40;;;;;;4977736;28;8824;-74
2022/05/20 02:09:44;;;;;;;;;40.50;36.00;19.80;35.40;;;;;;4977633;28;8851;-73
2022/05/20 02:12:15;;;;;;;;;47.00;39.75;19.80;35.40;;;;;;4977882;28;9452;-72
2022/05/20 02:14:51;;;;;;;;;28.00;28.00;19.80;35.10;;;;;;4977378;28;8865;-74
2022/05/20 02:17:26;;;;;;;;;25.67;25.67;19.80;34.80;;;;;;4977522;28;8781;-74
2022/05/20 02:20:00;;;;;;;;;19.67;19.67;19.80;34.80;;;;;;4977819;28;8762;-74
2022/05/20 02:22:31;;;;;;;;;16.33;16.33;19.70;34.90;;;;;;4977430;28;8794;-74
2022/05/20 02:24:59;;;;;;;;;17.00;17.00;19.70;34.80;;;;;;4977342;28;8816;-74
2022/05/20 02:27:28;;;;;;;;;18.33;18.33;19.60;35.10;;;;;;4977342;28;8789;-73
2022/05/20 02:30:11;;;;;;;;;16.67;16.67;19.60;35.20;;;;;;4977502;28;8789;-73
2022/05/20 02:33:02;;;;;;;;;15.00;15.00;19.50;35.40;;;;;;4977293;28;8939;-73
2022/05/20 02:35:28;;;;;;;;;16.67;16.67;19.50;35.70;;;;;;4977455;28;8766;-73
2022/05/20 02:37:54;;;;;;;;;16.00;16.00;19.40;36.10;;;;;;4977101;28;8798;-73
2022/05/20 02:40:21;;;;;;;;;17.67;17.67;19.40;36.40;;;;;;4976991;28;8781;-73
2022/05/20 02:42:47;;;;;;;;;17.00;17.00;19.20;36.50;;;;;;4977043;28;8864;-76
2022/05/20 02:45:14;;;;;;;;;16.00;16.00;19.30;36.30;;;;;;4977080;28;8888;-72
2022/05/20 02:47:40;;;;;;;;;17.00;17.00;19.40;35.80;;;;;;4976922;28;8774;-74
2022/05/20 02:50:09;;;;;;;;;14.33;14.33;19.30;35.80;;;;;;4977147;28;8804;-73
2022/05/20 02:52:35;;;;;;;;;17.00;17.00;19.30;35.70;;;;;;4976787;28;8816;-73
2022/05/20 02:55:02;;;;;;;;;16.33;16.33;19.30;35.60;;;;;;4976713;28;8891;-73
2022/05/20 02:57:28;;;;;;;;;20.67;20.67;19.30;35.60;;;;;;4976680;28;8789;-74
2022/05/20 03:05:22;;;;;;;;;18.33;18.33;19.00;36.20;;;;;;4976682;28;8761;-73
2022/05/20 03:07:48;;;;;;;;;17.00;17.00;19.00;36.60;;;;;;4976570;28;8770;-73
2022/05/20 03:10:14;;;;;;;;;20.67;20.67;18.90;36.60;;;;;;4976445;28;8824;-73
2022/05/20 03:12:40;;;;;;;;;19.00;18.67;19.00;37.00;;;;;;4976676;28;8792;-73
2022/05/20 03:15:10;;;;;;;;;21.67;21.67;19.00;37.40;;;;;;4976601;28;8923;-73
2022/05/20 03:17:37;;;;;;;;;14.67;14.67;18.90;37.20;;;;;;4976654;28;9653;-73
2022/05/20 03:20:04;;;;;;;;;15.33;15.33;18.90;37.10;;;;;;4976314;28;8777;-73
2022/05/20 03:22:32;;;;;;;;;19.67;19.67;18.80;37.30;;;;;;4969708;28;9493;-74
2022/05/20 03:24:58;;;;;;;;;17.33;17.33;18.80;37.40;;;;;;4960209;28;9446;-74
2022/05/20 03:27:24;;;;;;;;;16.67;16.67;18.80;37.40;;;;;;4964141;28;8829;-73
2022/05/20 03:29:50;;;;;;;;;20.33;20.33;18.50;37.20;;;;;;4976424;28;8864;-73
2022/05/20 03:32:16;;;;;;;;;16.33;16.33;18.50;37.60;;;;;;4976132;28;8905;-73
2022/05/20 03:34:43;;;;;;;;;17.33;17.33;18.40;37.50;;;;;;4975870;28;8833;-73
2022/05/20 03:37:09;;;;;;;;;17.00;17.00;18.40;37.50;;;;;;4976281;28;8781;-73
2022/05/20 03:39:35;;;;;;;;;18.33;18.33;18.40;37.40;;;;;;4975242;28;8798;-73
2022/05/20 03:42:03;;;;;;;;;15.00;15.00;18.40;37.40;;;;;;4962199;28;8908;-73
2022/05/20 03:44:29;;;;;;;;;16.67;16.67;18.40;37.50;;;;;;4967636;28;8812;-73
2022/05/20 03:46:56;;;;;;;;;18.67;18.67;18.40;37.60;;;;;;4956600;28;9504;-73
2022/05/20 03:49:26;;;;;;;;;18.67;18.67;18.40;37.80;;;;;;4956718;28;8788;-73
2022/05/20 03:51:53;;;;;;;;;18.33;18.33;18.30;38.20;;;;;;4956619;28;8942;-73
2022/05/20 03:54:22;;;;;;;;;15.33;15.33;18.40;38.30;;;;;;4956609;28;8836;-74
2022/05/20 03:56:48;;;;;;;;;17.67;17.67;18.50;37.80;;;;;;4956536;28;8764;-73
2022/05/20 03:59:14;;;;;;;;;16.33;16.33;18.60;37.20;;;;;;4956410;28;8823;-74
2022/05/20 04:01:56;;;;;;;;;19.00;19.00;18.60;37.80;;;;;;4956738;28;8854;-74
2022/05/20 04:04:31;;;;;;;;;18.00;18.00;18.70;38.00;;;;;;4971450;28;8814;-74
2022/05/20 04:06:59;;;;;;;;;15.00;15.00;18.70;37.90;;;;;;4956368;28;8823;-73
2022/05/20 04:09:25;;;;;;;;;16.33;16.33;18.80;37.50;;;;;;4955324;28;8792;-73
2022/05/20 04:11:57;;;;;;;;;14.00;14.00;18.80;36.60;;;;;;4956333;28;8768;-73
2022/05/20 04:14:25;;;;;;;;;16.33;16.33;18.80;37.80;;;;;;4956638;28;8857;-73
2022/05/20 04:16:55;;;;;;;;;18.33;18.33;18.80;37.40;;;;;;4956269;28;8776;-72
2022/05/20 04:19:22;;;;;;;;;16.67;16.67;18.90;37.70;;;;;;4956244;29;8791;-73
2022/05/20 04:21:49;;;;;;;;;16.33;16.33;19.00;37.70;;;;;;4956190;28;8792;-73
2022/05/20 04:24:15;;;;;;;;;18.67;18.67;19.00;37.10;;;;;;4956070;28;8806;-73
2022/05/20 04:26:41;;;;;;;;;18.00;18.00;19.10;37.00;;;;;;4956153;29;8772;-73
2022/05/20 04:29:07;;;;;;;;;16.00;16.00;19.10;36.90;;;;;;4956140;28;8804;-73
2022/05/20 04:31:32;;;;;;;;;21.33;21.33;19.20;37.40;;;;;;4956072;29;8794;-73
2022/05/20 04:33:58;;;;;;;;;19.67;18.33;19.20;37.20;;;;;;4955836;29;8914;-73
2022/05/20 04:36:24;;;;;;;;;22.33;22.33;19.20;36.80;;;;;;4956030;28;8796;-73
2022/05/20 04:38:49;;;;;;;;;23.00;23.00;19.20;36.80;;;;;;4962554;28;8829;-73
2022/05/20 04:46:59;;;;;;;;;21.00;21.00;19.30;37.60;;;;;;4964944;28;8796;-73
2022/05/20 04:49:29;;;;;;;;;17.00;17.00;19.40;37.70;;;;;;4960067;28;8788;-73
2022/05/20 04:51:56;;;;;;;;;20.67;20.67;19.30;37.60;;;;;;4973855;28;8793;-73
2022/05/20 04:57:08;;;;;;;;;31.00;30.00;19.30;36.70;;;;;;4963838;28;8764;-73
2022/05/20 04:59:38;;;;;;;;;25.67;25.67;19.40;36.70;;;;;;4972179;28;8870;-73
2022/05/20 05:02:05;;;;;;;;;24.00;24.00;19.50;37.20;;;;;;4960743;28;8816;-73
2022/05/20 05:04:31;;;;;;;;;20.67;20.67;19.70;37.00;;;;;;4959353;28;9465;-73
2022/05/20 05:06:58;;;;;;;;;29.00;29.00;19.80;37.30;;;;;;4983825;28;8815;-73
2022/05/20 05:09:24;;;;;;;;;29.00;29.00;19.80;37.50;;;;;;4959554;28;8777;-80
2022/05/20 05:11:50;;;;;;;;;25.67;25.67;19.80;37.80;;;;;;4976109;28;8793;-80
2022/05/20 05:14:16;;;;;;;;;22.67;22.67;19.90;38.00;;;;;;4993045;28;8833;-83
2022/05/20 05:16:43;;;;;;;;;27.33;27.33;20.00;37.40;;;;;;4978161;28;8792;-83
2022/05/20 05:19:10;;;;;;;;;29.00;28.67;20.00;37.70;;;;;;4978857;28;8816;-83
2022/05/20 05:21:36;;;;;;;;;32.67;32.33;20.00;37.10;;;;;;4978613;28;8786;-83
2022/05/20 05:24:03;;;;;;;;;26.00;26.00;20.00;37.40;;;;;;4978544;28;9653;-84
2022/05/20 05:26:31;;;;;;;;;27.00;27.00;20.00;37.40;;;;;;4978622;28;8762;-84
2022/05/20 05:28:58;;;;;;;;;28.33;28.33;20.10;37.60;;;;;;4978616;28;8777;-84
2022/05/20 05:31:26;;;;;;;;;27.33;27.33;20.20;37.40;;;;;;4978776;28;8888;-83
2022/05/20 05:33:52;;;;;;;;;25.00;25.00;20.40;37.00;;;;;;4977925;28;8833;-85
2022/05/20 05:36:18;;;;;;;;;28.67;28.67;20.40;37.40;;;;;;4978330;28;8810;-83
2022/05/20 05:38:44;;;;;;;;;31.67;29.33;20.50;37.50;;;;;;4993434;28;8797;-84
2022/05/20 05:41:10;;;;;;;;;28.00;28.00;20.50;37.00;;;;;;4978254;28;8777;-84
2022/05/20 05:43:37;;;;;;;;;30.33;30.33;20.60;36.90;;;;;;4978040;28;8899;-84
2022/05/20 05:46:03;;;;;;;;;24.33;24.33;20.70;36.70;;;;;;4978067;28;8773;-83
2022/05/20 05:48:28;;;;;;;;;30.33;29.00;20.80;36.20;;;;;;4977600;28;8786;-83
2022/05/20 05:50:55;;;;;;;;;27.00;27.00;20.90;35.80;;;;;;4978268;28;9419;-84
2022/05/20 05:53:24;;;;;;;;;28.33;28.33;20.90;35.60;;;;;;4977997;28;8884;-84
2022/05/20 05:56:00;;;;;;;;;28.33;27.00;21.00;35.70;;;;;;4978254;28;8868;-83
2022/05/20 05:58:27;;;;;;;;;31.33;30.00;21.10;36.00;;;;;;4978230;28;8800;-84
2022/05/20 06:00:55;;;;;;;;;37.00;34.00;21.10;36.30;;;;;;4977969;28;8757;-85
2022/05/20 06:03:21;;;;;;;;;33.00;32.00;21.20;35.80;;;;;;4978364;28;8884;-77
2022/05/20 06:05:46;;;;;;;;;33.67;33.00;21.30;36.80;;;;;;4977700;28;8766;-75
2022/05/20 06:08:13;;;;;;;;;35.33;34.33;21.30;37.00;;;;;;4977712;28;8848;-76
2022/05/20 06:10:40;;;;;;;;;35.00;33.00;21.40;36.60;;;;;;4977723;28;8866;-75
2022/05/20 06:13:06;;;;;;;;;42.00;37.00;21.40;37.30;;;;;;4977780;28;8773;-76
2022/05/20 06:15:32;;;;;;;;;40.00;36.33;21.40;37.60;;;;;;4977864;28;8948;-74
2022/05/20 06:17:57;;;;;;;;;38.33;34.33;21.50;37.70;;;;;;4977697;28;8976;-76
2022/05/20 06:20:25;;;;;;;;;35.25;32.25;21.60;37.90;;;;;;4977385;28;9574;-74
2022/05/20 06:22:50;;;;;;;;;39.00;35.00;21.60;36.80;;;;;;4977316;28;8866;-75
2022/05/20 06:25:17;;;;;;;;;36.00;33.00;21.60;35.90;;;;;;4977250;28;8908;-75
2022/05/20 06:27:43;;;;;;;;;35.00;32.00;21.70;36.30;;;;;;4977489;28;8773;-76
2022/05/20 06:30:13;;;;;;;;;34.33;33.33;21.80;36.40;;;;;;4977249;28;8773;-76
2022/05/20 06:32:39;;;;;;;;;31.67;30.67;21.80;35.90;;;;;;4977374;28;8827;-75
2022/05/20 06:40:45;;;;;;;;;27.67;27.00;22.00;35.70;;;;;;4977118;28;8741;-76
2022/05/20 06:43:29;;;;;;;;;25.33;25.33;22.00;35.30;;;;;;4976833;28;8907;-75
2022/05/20 06:45:58;;;;;;;;;23.00;23.00;22.10;35.00;;;;;;4977247;28;8789;-76
2022/05/20 06:48:25;;;;;;;;;24.33;24.33;22.10;35.50;;;;;;4976991;28;9458;-76
2022/05/20 06:50:50;;;;;;;;;24.67;24.67;22.20;35.10;;;;;;4976832;28;8774;-76
2022/05/20 06:53:16;;;;;;;;;24.00;24.00;22.20;34.70;;;;;;4976846;28;9444;-75
2022/05/20 06:55:42;;;;;;;;;24.67;24.67;22.40;34.60;;;;;;4976650;28;8816;-74
2022/05/20 06:58:08;;;;;;;;;22.33;22.33;22.50;34.50;;;;;;4976655;28;9435;-75
2022/05/20 07:00:34;;;;;;;;;22.67;22.67;22.50;34.30;;;;;;4976041;28;8809;-75
2022/05/20 07:03:00;;;;;;;;;21.00;21.00;22.60;34.20;;;;;;4976835;28;8796;-77
2022/05/20 07:05:27;;;;;;;;;23.67;23.67;22.60;34.10;;;;;;4976501;28;8798;-77
2022/05/20 07:07:53;;;;;;;;;24.67;24.67;22.70;33.70;;;;;;4976494;28;8777;-76
2022/05/20 07:10:20;;;;;;;;;26.00;26.00;22.80;33.40;;;;;;4976453;28;8788;-78
2022/05/20 07:12:46;;;;;;;;;29.00;29.00;22.70;33.40;;;;;;4976414;28;8815;-77
2022/05/20 07:15:12;;;;;;;;;27.00;27.00;22.80;33.60;;;;;;4976939;28;8841;-77
2022/05/20 07:17:39;;;;;;;;;29.33;29.33;22.90;33.40;;;;;;4976466;28;8792;-77
2022/05/20 07:20:07;;;;;;;;;26.33;26.33;23.10;33.20;;;;;;4976594;28;8781;-78
2022/05/20 07:22:33;;;;;;;;;26.33;26.33;23.10;33.10;;;;;;4976250;28;8750;-77
2022/05/20 07:24:58;;;;;;;;;27.00;27.00;23.20;33.40;;;;;;4976539;28;8777;-77
2022/05/20 07:27:24;;;;;;;;;27.33;27.33;23.30;33.30;;;;;;4976087;28;8816;-78
2022/05/20 07:29:50;;;;;;;;;24.00;24.00;23.30;32.80;;;;;;4976414;28;8770;-78
2022/05/20 07:32:16;;;;;;;;;24.33;24.33;23.40;32.40;;;;;;4976314;28;8770;-77
2022/05/20 07:34:41;;;;;;;;;23.33;23.33;23.50;32.10;;;;;;4975837;28;9460;-77
2022/05/20 07:37:07;;;;;;;;;27.00;27.00;23.50;31.90;;;;;;4975991;28;8762;-77
2022/05/20 07:39:33;;;;;;;;;20.67;20.67;23.60;31.90;;;;;;4975953;28;8785;-76
2022/05/20 07:41:59;;;;;;;;;21.67;21.67;23.70;32.40;;;;;;4975949;28;9223;-77
2022/05/20 07:44:26;;;;;;;;;18.33;18.33;23.80;32.70;;;;;;4975877;28;8833;-77
2022/05/20 07:46:52;;;;;;;;;15.67;15.33;23.90;32.40;;;;;;4975801;28;8876;-75
2022/05/20 07:49:18;;;;;;;;;17.00;17.00;23.90;32.10;;;;;;4974371;28;8785;-78
2022/05/20 07:51:49;;;;;;;;;20.33;20.33;24.00;31.70;;;;;;4975806;28;8766;-78
2022/05/20 07:54:22;;;;;;;;;23.00;23.00;24.10;31.70;;;;;;4975672;28;8844;-78
2022/05/20 07:56:57;;;;;;;;;22.00;22.00;24.20;30.60;;;;;;4976360;28;8880;-78
2022/05/20 07:59:30;;;;;;;;;20.00;20.00;24.20;30.90;;;;;;4975692;28;8792;-77
2022/05/20 08:02:00;;;;;;;;;22.33;22.00;24.30;30.90;;;;;;4975613;28;8789;-79
2022/05/20 08:04:53;;;;;;;;;19.33;19.33;24.40;31.50;;;;;;4975828;28;8855;-78
2022/05/20 08:07:23;;;;;;;;;18.33;18.33;24.40;31.70;;;;;;4975738;28;8792;-79
2022/05/20 08:09:48;;;;;;;;;18.67;18.67;24.60;31.30;;;;;;4975769;28;8762;-77
2022/05/20 08:12:14;;;;;;;;;18.33;17.67;24.70;31.10;;;;;;4975639;28;8805;-77
2022/05/20 08:14:40;;;;;;;;;22.33;22.00;24.80;30.90;;;;;;4975636;28;8850;-78
2022/05/20 08:17:07;;;;;;;;;31.67;31.33;24.90;30.80;;;;;;4974469;28;8817;-77
2022/05/20 08:19:33;;;;;;;;;24.67;23.33;25.00;30.70;;;;;;4975398;28;8855;-77
2022/05/20 08:21:59;;;;;;;;;21.00;19.33;25.10;30.50;;;;;;4975358;28;9447;-78
2022/05/20 08:24:25;;;;;;;;;18.00;15.67;25.20;30.50;;;;;;4975845;28;8793;-79
2022/05/20 08:26:51;;;;;;;;;9.33;9.33;25.30;30.00;;;;;;4975978;28;8875;-76
2022/05/20 08:29:17;;;;;;;;;16.00;15.67;25.40;29.20;;;;;;4976206;28;8757;-78
2022/05/20 08:31:44;;;;;;;;;13.33;13.33;25.50;28.60;;;;;;4975732;28;8781;-80
2022/05/20 08:34:11;;;;;;;;;14.33;13.00;25.70;28.60;;;;;;4975770;28;11683;-80
2022/05/20 08:36:40;;;;;;;;;17.00;16.33;25.90;28.50;;;;;;4975691;28;11624;-79
2022/05/20 08:39:10;;;;;;;;;11.33;11.00;25.90;28.40;;;;;;4975367;28;8802;-78
2022/05/20 08:41:53;;;;;;;;;12.67;12.67;26.00;28.20;;;;;;4975114;28;11535;-79
2022/05/20 08:44:21;;;;;;;;;12.00;11.00;26.10;27.40;;;;;;4975273;28;11549;-78
2022/05/20 08:46:48;;;;;;;;;13.33;12.00;26.20;27.50;;;;;;4974070;28;11552;-77
2022/05/20 08:49:17;;;;;;;;;11.00;9.00;26.40;27.70;;;;;;4975030;28;11513;-78
2022/05/20 08:51:49;;;;;;;;;15.00;15.00;26.50;25.70;;;;;;4975098;28;11523;-78
2022/05/20 08:54:14;;;;;;;;;10.00;10.00;26.60;25.20;;;;;;4975012;28;11687;-78
2022/05/20 08:56:40;;;;;;;;;14.00;14.00;26.60;24.60;;;;;;4974998;28;11652;-78
2022/05/20 08:59:11;;;;;;;;;10.33;10.00;26.60;24.10;;;;;;4975393;28;8828;-79
2022/05/20 09:01:46;;;;;;;;;15.00;13.67;26.70;23.70;;;;;;4975358;28;8785;-77
2022/05/20 09:04:15;;;;;;;;;14.67;13.00;26.70;24.20;;;;;;4974907;28;11601;-78
2022/05/20 09:06:56;;;;;;;;;12.67;12.67;26.70;24.40;;;;;;4974819;28;11529;-78
2022/05/20 09:09:25;;;;;;;;;10.67;10.67;26.70;25.20;;;;;;4975159;28;11518;-78
2022/05/20 09:11:57;;;;;;;;;7.33;7.00;26.80;25.30;;;;;;4975314;28;8808;-78
2022/05/20 09:17:18;;;;;;;;;8.25;7.00;27.10;24.60;;;;;;4974955;28;11515;-79
2022/05/20 09:19:53;;;;;;;;;11.00;11.00;27.00;22.10;;;;;;4975061;28;11490;-76
2022/05/20 09:22:26;;;;;;;;;8.00;8.00;27.00;22.50;;;;;;4989996;28;11527;-76
2022/05/20 09:24:52;;;;;;;;;10.25;10.00;26.80;23.40;;;;;;4977260;28;11499;-78
2022/05/20 09:27:30;;;;;;;;;9.75;9.75;26.80;22.90;;;;;;4978430;28;11626;-76
2022/05/20 09:30:08;;;;;;;;;8.75;8.75;26.90;22.60;;;;;;4978094;28;8790;-77
2022/05/20 09:32:37;;;;;;;;;8.00;8.00;27.10;22.00;;;;;;4978161;28;11483;-76
2022/05/20 09:35:18;;;;;;;;;8.75;8.50;27.30;21.80;;;;;;4977935;28;11594;-78
2022/05/20 09:37:49;;;;;;;;;10.75;10.25;27.40;22.40;;;;;;4978092;28;11524;-77
2022/05/20 09:40:41;;;;;;;;;9.25;9.25;27.60;23.10;;;;;;4978284;28;11532;-76
2022/05/20 09:43:41;;;;;;;;;8.50;8.00;27.80;23.30;;;;;;4978008;28;11479;-77
2022/05/20 09:46:27;;;;;;;;;8.50;8.50;27.90;22.20;;;;;;4956325;28;11526;-76
2022/05/20 09:49:04;;;;;;;;;8.25;8.25;28.10;22.50;;;;;;4956462;28;11542;-76
2022/05/20 09:51:45;;;;;;;;;10.00;8.25;28.20;22.20;;;;;;4956459;28;11554;-77
2022/05/20 09:54:20;;;;;;;;;8.75;8.75;28.30;22.30;;;;;;4956292;28;11573;-75
2022/05/20 09:57:04;;;;;;;;;10.25;9.25;28.50;23.00;;;;;;4956234;28;11629;-77
2022/05/20 09:59:35;;;;;;;;;9.00;9.00;28.60;21.20;;;;;;4956307;28;11566;-77
2022/05/20 10:02:09;;;;;;;;;7.00;7.00;28.60;20.30;;;;;;4956144;28;11532;-76
2022/05/20 10:04:55;;;;;;;;;10.00;10.00;28.80;20.70;;;;;;4956162;28;11541;-76
2022/05/20 10:07:50;;;;;;;;;9.25;9.25;29.00;21.70;;;;;;4956159;28;11520;-79
2022/05/20 10:10:45;;;;;;;;;10.75;10.75;29.00;20.10;;;;;;4956025;28;11586;-77
2022/05/20 10:13:22;;;;;;;;;9.75;9.75;29.20;20.80;;;;;;4956018;28;11647;-76
2022/05/20 10:15:51;;;;;;;;;8.75;8.00;29.40;20.80;;;;;;4955887;28;11698;-78
2022/05/20 10:18:30;;;;;;;;;12.25;10.00;29.60;21.20;;;;;;4956113;28;11679;-78
2022/05/20 10:21:33;;;;;;;;;9.75;9.75;29.70;20.80;;;;;;4955980;28;11549;-77
2022/05/20 10:24:10;;;;;;;;;9.00;9.00;29.90;20.30;;;;;;4977330;28;11518;-78
2022/05/20 10:26:55;;;;;;;;;7.50;7.50;30.00;18.50;;;;;;4977465;28;11550;-81
2022/05/20 10:32:41;;;;;;;;;8.50;8.50;30.10;17.10;;;;;;4977154;28;11478;-78
2022/05/20 10:35:12;;;;;;;;;9.25;9.25;30.30;18.30;;;;;;4976682;28;12453;-79
2022/05/20 10:37:56;;;;;;;;;6.50;6.50;30.30;18.40;;;;;;4977051;28;11489;-78
2022/05/20 10:40:34;;;;;;;;;9.00;9.00;30.40;17.90;;;;;;4977004;28;11533;-79
2022/05/20 10:43:29;;;;;;;;;8.00;8.00;30.80;17.10;;;;;;4976910;28;11577;-78
2022/05/20 10:48:56;;;;;;;;;7.75;7.75;31.30;18.60;;;;;;4976886;28;11506;-77
2022/05/20 10:51:49;;;;;;;;;6.75;6.75;31.40;16.80;;;;;;4976837;28;11548;-80
2022/05/20 10:54:46;;;;;;;;;7.75;7.75;31.30;16.80;;;;;;4976959;28;11527;-79
2022/05/20 10:57:33;;;;;;;;;8.00;8.00;31.30;16.70;;;;;;4971751;28;11511;-78
2022/05/20 11:00:22;;;;;;;;;6.50;6.50;31.60;16.30;;;;;;4976496;28;11526;-79
2022/05/20 11:03:26;;;;;;;;;6.25;6.25;32.10;16.30;;;;;;4976432;28;11479;-80
2022/05/20 11:06:16;;;;;;;;;8.00;8.00;32.50;16.20;;;;;;4976778;28;11479;-79
2022/05/20 11:09:10;;;;;;;;;4.50;4.50;32.60;15.60;;;;;;4976415;28;11498;-79
2022/05/20 11:12:01;;;;;;;;;8.00;8.00;32.50;15.20;;;;;;4954709;28;11540;-79
2022/05/20 11:14:45;;;;;;;;;7.50;7.50;32.70;15.70;;;;;;4954954;28;11603;-79
2022/05/20 11:17:30;;;;;;;;;6.50;6.50;33.10;15.40;;;;;;4954991;28;11669;-81
2022/05/20 11:20:10;;;;;;;;;3.50;3.50;33.50;14.20;;;;;;4954955;28;12393;-79
2022/05/20 11:22:57;;;;;;;;;6.00;6.00;33.80;16.30;;;;;;4954824;28;11592;-79
2022/05/20 11:25:33;;;;;;;;;6.00;6.00;34.00;15.00;;;;;;4954976;28;11532;-80
2022/05/20 11:28:34;;;;;;;;;6.25;6.25;34.30;14.70;;;;;;4954951;28;12224;-80
2022/05/20 11:31:17;;;;;;;;;6.00;6.00;34.50;14.20;;;;;;4954581;28;11502;-78
2022/05/20 11:33:54;;;;;;;;;7.00;7.00;34.70;14.80;;;;;;4954658;28;12201;-79
2022/05/20 11:36:32;;;;;;;;;6.00;6.00;35.00;15.20;;;;;;4954608;28;11626;-78
2022/05/20 11:39:07;;;;;;;;;12.00;12.00;35.30;14.20;;;;;;4954649;28;11681;-80
2022/05/20 11:41:59;;;;;;;;;5.00;5.00;35.60;15.40;;;;;;4954423;28;11544;-78
2022/05/20 11:44:52;;;;;;;;;7.00;7.00;36.30;14.20;;;;;;4954448;28;11588;-79
2022/05/20 11:47:45;;;;;;;;;6.00;6.00;41.60;15.30;;;;;;4954477;28;11521;-76
2022/05/20 11:50:33;;;;;;;;;10.00;10.00;46.90;11.70;;;;;;4975937;28;12224;-79
2022/05/20 11:53:16;;;;;;;;;8.00;8.00;52.60;11.10;;;;;;4975582;28;11529;-78
2022/05/20 11:55:55;;;;;;;;;8.25;8.25;56.60;9.40;;;;;;4969815;28;11610;-79
2022/05/20 11:58:31;;;;;;;;;6.00;6.00;60.60;9.00;;;;;;4970509;28;11513;-78
2022/05/20 12:00:59;;;;;;;;;8.00;8.00;61.40;7.50;;;;;;4956550;28;11489;-78
2022/05/20 12:03:30;;;;;;;;;5.25;5.25;62.10;8.50;;;;;;4957998;28;11570;-76
2022/05/20 12:06:00;;;;;;;;;5.75;5.75;61.40;7.50;;;;;;4965129;28;11518;-77
2022/05/20 12:08:39;;;;;;;;;5.25;5.25;55.70;6.50;;;;;;4973161;28;11492;-79
2022/05/20 12:11:29;;;;;;;;;6.50;6.50;49.20;7.80;;;;;;4964905;28;11559;-80
2022/05/20 12:14:19;;;;;;;;;5.50;5.50;44.80;9.30;;;;;;4965448;28;12267;-79
2022/05/20 12:17:00;;;;;;;;;6.75;6.75;41.90;10.70;;;;;;4956059;28;11596;-79
2022/05/20 12:25:34;;;;;;;;;6.75;6.75;38.20;12.20;;;;;;4975243;28;11462;-79
2022/05/20 12:28:10;;;;;;;;;7.50;7.50;37.80;13.90;;;;;;4975342;28;12302;-79
2022/05/20 12:30:42;;;;;;;;;5.75;5.75;37.20;12.00;;;;;;4956661;28;11479;-80
2022/05/20 12:33:24;;;;;;;;;6.25;6.25;37.00;12.60;;;;;;4955741;29;11489;-82
2022/05/20 12:36:15;;;;;;;;;5.25;5.25;36.70;13.40;;;;;;4956016;29;11594;-80
2022/05/20 12:38:42;;;;;;;;;6.00;6.00;36.70;12.80;;;;;;4956252;29;11499;-78
2022/05/20 12:41:39;;;;;;;;;8.75;8.75;36.80;14.00;;;;;;4956028;28;11510;-82
2022/05/20 12:44:17;;;;;;;;;0.00;0.00;37.10;14.80;;;;;;4948713;29;11564;-82
2022/05/20 12:46:52;;;;;;;;;8.00;8.00;37.10;14.40;;;;;;4955747;29;11503;-82
2022/05/20 12:49:20;;;;;;;;;8.75;8.75;37.00;14.30;;;;;;4955692;29;11504;-78
2022/05/20 12:51:49;;;;;;;;;6.25;6.25;36.00;14.00;;;;;;4955975;29;11500;-75
2022/05/20 12:54:22;;;;;;;;;7.50;7.50;36.20;14.40;;;;;;4955603;28;11653;-75
2022/05/20 12:57:02;;;;;;;;;8.25;8.25;36.40;13.70;;;;;;4955860;28;11529;-76
2022/05/20 12:59:27;;;;;;;;;6.75;6.75;36.30;13.80;;;;;;4957901;28;11496;-77
2022/05/20 13:02:00;;;;;;;;;6.25;6.25;36.60;14.50;;;;;;4959122;28;12201;-77
2022/05/20 13:04:30;;;;;;;;;5.50;5.50;36.90;14.20;;;;;;4959221;28;8764;-77
2022/05/20 13:06:59;;;;;;;;;7.00;7.00;36.30;13.50;;;;;;4959377;28;11499;-79
2022/05/20 13:09:38;;;;;;;;;6.00;6.00;36.30;13.40;;;;;;4959264;28;12200;-78
2022/05/20 13:12:08;;;;;;;;;5.00;5.00;36.10;14.70;;;;;;4959370;28;11484;-77
2022/05/20 13:14:36;;;;;;;;;4.75;4.75;35.60;13.30;;;;;;4959315;28;11598;-78
2022/05/20 13:17:03;;;;;;;;;4.75;4.75;36.00;14.00;;;;;;4959235;28;11514;-80
2022/05/20 13:19:38;;;;;;;;;5.75;5.75;36.00;13.70;;;;;;4959229;28;11504;-79
2022/05/20 13:22:07;;;;;;;;;5.00;5.00;36.40;13.80;;;;;;4959244;28;11622;-81
2022/05/20 13:24:38;;;;;;;;;5.25;5.25;36.60;13.70;;;;;;4959268;28;11483;-77
2022/05/20 13:27:05;;;;;;;;;5.75;5.75;36.70;13.90;;;;;;4970085;28;11502;-80
2022/05/20 13:29:30;;;;;;;;;4.25;4.25;36.60;13.10;;;;;;4978624;28;11503;-78
2022/05/20 13:32:30;;;;;;;;;4.00;4.00;36.60;14.90;;;;;;4978246;28;11506;-78
2022/05/20 13:34:58;;;;;;;;;4.75;4.75;36.70;14.60;;;;;;4977696;28;8851;-81
2022/05/20 13:37:38;;;;;;;;;6.25;6.25;36.70;14.40;;;;;;4971496;28;11556;-77
2022/05/20 13:40:17;;;;;;;;;5.00;5.00;36.60;13.70;;;;;;4967275;28;11493;-79